Time;durP1;ratioP1;P1;durP2;ratioP2;P2;SDS_P1;SDS_P2;PMS_P1;PMS_P2;Temp;Humidity;BMP_temperature;BMP_pressure;BME280_temperature;BME280_humidity;BME280_pressure;Samples;Min_cycle;Max_cycle;Signal;HPM_P1;HPM_P2
2023/09/29 04:51:13;;;;;;;;;;;;;;;12.30;84.56;100933.02;110054;1272;22495;-49
2023/09/29 04:53:41;;;;;;;;;;;;;;;12.32;84.68;100936.01;110320;1266;22483;-45
2023/09/29 04:56:07;;;;;;;;;;;;;;;12.37;84.82;100932.35;110176;1262;22448;-50
2023/09/29 04:58:34;;;;;;;;;;;;;;;12.44;84.88;100931.67;110151;1267;22430;-48
2023/09/29 05:01:01;;;;;;;;;;;;;;;12.53;84.99;100933.79;110159;1267;23598;-49
2023/09/29 05:03:27;;;;;;;;;;;;;;;12.61;85.03;100930.13;109144;1262;22505;-44
2023/09/29 05:05:55;;;;;;;;;;;;;;;12.70;84.78;100930.31;110066;1269;22913;-45
2023/09/29 05:08:21;;;;;;;;;;;;;;;12.80;84.72;100927.70;110154;1262;22842;-46
2023/09/29 05:10:48;;;;;;;;;;;;;;;12.90;84.72;100931.38;110100;1267;23241;-49
2023/09/29 05:13:15;;;;;;;;;;;;;;;13.01;84.52;100935.25;110098;1262;22509;-46
2023/09/29 05:15:44;;;;;;;;;;;;;;;13.13;84.44;100930.35;110122;1259;23610;-45
2023/09/29 05:18:11;;;;;;;;;;;;;;;13.24;84.28;100930.36;110028;1267;23527;-44
2023/09/29 05:20:38;;;;;;;;;;;;;;;13.35;84.10;100931.75;110037;1256;23313;-44
2023/09/29 05:23:04;;;;;;;;;;;;;;;13.47;84.01;100929.98;109830;1270;23906;-45
2023/09/29 05:25:31;;;;;;;;;;;;;;;13.61;83.79;100934.33;109870;1267;24136;-45
2023/09/29 05:27:57;;;;;;;;;;;;;;;13.74;83.59;100932.91;109915;1272;22545;-44
2023/09/29 05:30:28;;;;;;;;;;;;;;;13.89;83.39;100933.03;109794;1269;23492;-50
2023/09/29 05:33:21;;;;;;;;;;;;;;;14.06;83.24;100932.96;108931;1270;25776;-49
2023/09/29 05:36:12;;;;;;;;;;;;;;;14.30;82.85;100934.43;109394;1272;22560;-47
2023/09/29 05:38:43;;;;;;;;;;;;;;;14.50;82.09;100935.74;109162;1270;22655;-49
2023/09/29 05:41:20;;;;;;;;;;;;;;;14.69;81.23;100931.96;109489;1271;22546;-44
2023/09/29 05:44:14;;;;;;;;;;;;;;;14.90;80.04;100933.73;109308;1270;22516;-45
2023/09/29 05:47:01;;;;;;;;;;;;;;;15.09;79.10;100933.92;109373;1270;23319;-49
2023/09/29 05:49:50;;;;;;;;;;;;;;;15.27;78.40;100935.70;109408;1269;22595;-49
2023/09/29 05:52:37;;;;;;;;;;;;;;;15.45;77.69;100936.06;109274;1272;22607;-49
2023/09/29 05:55:05;;;;;;;;;;;;;;;15.61;77.12;100934.16;109531;1270;23337;-50
2023/09/29 05:57:34;;;;;;;;;;;;;;;15.77;76.28;100932.23;109082;1270;22511;-45
2023/09/29 06:00:13;;;;;;;;;;;;;;;15.92;75.84;100928.36;108288;1270;22495;-45
2023/09/29 06:02:40;;;;;;;;;;;;;;;16.09;75.31;100925.17;109705;1269;22530;-49
2023/09/29 06:05:24;;;;;;;;;;;;;;;16.27;74.69;100921.60;109240;1269;23116;-50
2023/09/29 06:07:53;;;;;;;;;;;;;;;16.45;74.32;100922.23;109734;1272;23385;-48
2023/09/29 06:10:27;;;;;;;;;;;;;;;16.64;73.47;100919.83;108920;1272;22917;-45
2023/09/29 06:13:32;;;;;;;;;;;;;;;16.85;72.63;100921.83;109461;1270;22516;-49
2023/09/29 06:16:29;;;;;;;;;;;;;;;17.14;71.14;100922.41;109534;1269;22676;-45
2023/09/29 06:19:03;;;;;;;;;;;;;;;17.38;69.85;100919.88;109488;1270;22531;-49
2023/09/29 06:21:39;;;;;;;;;;;;;;;17.56;68.84;100916.36;109249;1269;22490;-44
2023/09/29 06:24:18;;;;;;;;;;;;;;;17.74;67.73;100916.02;109642;1259;22637;-47
2023/09/29 06:27:14;;;;;;;;;;;;;;;17.94;66.78;100916.53;108887;1273;23188;-50
2023/09/29 06:29:50;;;;;;;;;;;;;;;18.11;65.72;100914.56;109185;1272;22630;-45
2023/09/29 06:32:43;;;;;;;;;;;;;;;18.29;65.07;100918.43;109782;1273;22547;-50
2023/09/29 06:35:16;;;;;;;;;;;;;;;18.46;64.36;100912.73;109895;1272;22464;-49
2023/09/29 06:38:02;;;;;;;;;;;;;;;18.66;63.48;100913.02;108868;1270;22562;-49
2023/09/29 06:40:38;;;;;;;;;;;;;;;18.80;62.43;100917.81;108044;1268;23338;-44
2023/09/29 06:43:12;;;;;;;;;;;;;;;18.95;61.90;100914.97;109632;1271;22473;-44
2023/09/29 06:45:51;;;;;;;;;;;;;;;19.12;61.16;100915.77;109671;1270;22504;-45
2023/09/29 06:48:29;;;;;;;;;;;;;;;19.28;60.44;100914.67;110035;1271;23315;-45
2023/09/29 06:50:59;;;;;;;;;;;;;;;19.44;60.02;100921.33;110027;1270;22440;-46
2023/09/29 06:53:34;;;;;;;;;;;;;;;19.58;59.41;100919.35;109959;1270;22619;-48
2023/09/29 06:56:07;;;;;;;;;;;;;;;19.76;58.85;100918.88;109580;1274;22543;-46
2023/09/29 06:58:35;;;;;;;;;;;;;;;19.91;57.95;100920.22;109596;1267;22586;-48
2023/09/29 07:01:36;;;;;;;;;;;;;;;20.03;57.37;100920.94;109248;1272;23649;-50
2023/09/29 07:04:32;;;;;;;;;;;;;;;20.19;56.79;100921.36;109466;1270;22483;-49
2023/09/29 07:07:29;;;;;;;;;;;;;;;20.38;55.90;100922.90;109549;1275;22561;-51
2023/09/29 07:09:56;;;;;;;;;;;;;;;20.53;55.22;100926.38;109722;1269;169109;-49
2023/09/29 07:12:23;;;;;;;;;;;;;;;20.67;54.88;100923.44;109721;1269;22952;-49
2023/09/29 07:14:51;;;;;;;;;;;;;;;20.83;53.88;100921.17;109620;1268;22534;-46
2023/09/29 07:17:18;;;;;;;;;;;;;;;20.99;53.30;100917.97;109920;1257;23245;-50
2023/09/29 07:19:46;;;;;;;;;;;;;;;21.15;52.73;100915.85;109557;1268;22482;-50
2023/09/29 07:22:16;;;;;;;;;;;;;;;21.27;52.26;100920.77;109523;1268;23458;-50
2023/09/29 07:24:45;;;;;;;;;;;;;;;21.40;51.86;100920.50;109350;1275;22649;-45
2023/09/29 07:27:12;;;;;;;;;;;;;;;21.53;51.02;100918.27;109658;1272;22527;-50
2023/09/29 07:29:40;;;;;;;;;;;;;;;21.67;50.69;100919.01;109485;1272;22517;-50
2023/09/29 07:32:12;;;;;;;;;;;;;;;21.82;50.48;100918.83;109752;1271;22547;-50
2023/09/29 07:35:09;;;;;;;;;;;;;;;21.98;49.47;100917.02;109441;1275;22943;-50
2023/09/29 07:37:52;;;;;;;;;;;;;;;22.13;48.83;100918.41;109591;1270;23138;-47
2023/09/29 07:40:20;;;;;;;;;;;;;;;22.28;48.40;100918.18;109771;1269;23290;-50
2023/09/29 07:42:47;;;;;;;;;;;;;;;22.44;47.74;100914.36;109648;1269;22608;-46
2023/09/29 07:45:15;;;;;;;;;;;;;;;22.60;47.22;100911.98;109652;1262;22632;-51
2023/09/29 07:51:58;;;;;;;;;;;;;;;22.98;46.27;100912.03;109565;1270;22518;-45
2023/09/29 07:54:34;;;;;;;;;;;;;;;23.10;45.73;100912.59;109595;1272;22670;-45
2023/09/29 07:57:09;;;;;;;;;;;;;;;23.24;45.35;100912.69;109496;1272;22496;-49
2023/09/29 07:59:36;;;;;;;;;;;;;;;23.40;44.21;100910.77;109772;1268;22455;-50
2023/09/29 08:02:04;;;;;;;;;;;;;;;23.58;42.93;100906.27;109798;1271;23701;-45
2023/09/29 08:04:31;;;;;;;;;;;;;;;23.75;42.37;100907.31;109709;1274;22631;-51
2023/09/29 08:06:59;;;;;;;;;;;;;;;23.89;42.09;100903.62;109697;1270;22449;-51
2023/09/29 08:09:25;;;;;;;;;;;;;;;24.04;41.27;100896.72;109633;1266;23421;-51
2023/09/29 08:12:31;;;;;;;;;;;;;;;24.14;41.06;100896.05;109611;1266;22519;-46
2023/09/29 08:15:39;;;;;;;;;;;;;;;24.24;41.21;100891.52;109599;1271;22490;-51
2023/09/29 08:18:25;;;;;;;;;;;;;;;24.38;39.82;100885.68;109455;1270;22451;-46
2023/09/29 08:21:52;;;;;;;;;;;;;;;24.54;38.67;100880.62;109600;1269;22575;-45
2023/09/29 08:24:27;;;;;;;;;;;;;;;24.63;38.31;100882.33;109558;1272;22562;-49
2023/09/29 08:27:04;;;;;;;;;;;;;;;24.73;38.40;100881.48;109461;1272;22567;-48
2023/09/29 08:29:40;;;;;;;;;;;;;;;24.87;37.69;100878.82;109571;1270;22556;-51
2023/09/29 08:32:12;;;;;;;;;;;;;;;24.99;37.30;100878.20;109606;1272;22483;-47
2023/09/29 08:34:54;;;;;;;;;;;;;;;25.08;36.52;100877.92;109734;1268;22447;-50
2023/09/29 08:37:28;;;;;;;;;;;;;;;25.14;36.39;100871.73;109589;1271;22560;-47
2023/09/29 08:39:55;;;;;;;;;;;;;;;25.24;36.48;100876.44;109458;1271;23267;-47
2023/09/29 08:42:27;;;;;;;;;;;;;;;25.38;36.15;100872.13;109619;1270;22454;-51
2023/09/29 08:44:57;;;;;;;;;;;;;;;25.50;35.81;100868.61;109371;1272;23281;-50
2023/09/29 08:47:25;;;;;;;;;;;;;;;25.64;35.36;100867.14;109482;1272;23763;-51
2023/09/29 08:49:52;;;;;;;;;;;;;;;25.75;35.38;100861.39;109497;1272;22424;-52
2023/09/29 08:52:19;;;;;;;;;;;;;;;25.81;35.67;100860.73;109532;1276;22602;-46
2023/09/29 08:54:46;;;;;;;;;;;;;;;25.81;35.82;100863.59;109537;1275;22453;-46
2023/09/29 08:57:13;;;;;;;;;;;;;;;25.83;35.74;100862.62;109189;1262;23170;-46
2023/09/29 08:59:40;;;;;;;;;;;;;;;25.88;34.94;100863.59;109375;1272;22511;-47
2023/09/29 09:02:06;;;;;;;;;;;;;;;25.97;34.33;100864.86;109449;1272;22483;-44
2023/09/29 09:04:33;;;;;;;;;;;;;;;26.07;34.05;100866.10;109450;1272;22538;-46
2023/09/29 09:07:02;;;;;;;;;;;;;;;26.16;33.50;100860.08;109602;1271;22465;-46
2023/09/29 09:09:30;;;;;;;;;;;;;;;26.23;33.32;100858.61;109929;1269;22448;-46
2023/09/29 09:11:59;;;;;;;;;;;;;;;26.36;33.25;100861.25;110021;1275;22501;-51
2023/09/29 09:14:26;;;;;;;;;;;;;;;26.47;32.86;100859.73;109944;1270;22905;-51
2023/09/29 09:16:55;;;;;;;;;;;;;;;26.55;32.52;100857.48;109816;1267;22559;-45
2023/09/29 09:19:22;;;;;;;;;;;;;;;26.65;32.27;100855.65;109981;1268;22432;-46
2023/09/29 09:21:49;;;;;;;;;;;;;;;26.73;32.10;100851.42;109749;1276;23363;-47
2023/09/29 09:24:18;;;;;;;;;;;;;;;26.76;31.64;100853.02;110052;1265;22618;-48
2023/09/29 09:26:46;;;;;;;;;;;;;;;26.83;31.64;100853.75;109822;1272;23669;-46
2023/09/29 09:29:16;;;;;;;;;;;;;;;26.91;31.51;100848.40;109962;1266;22633;-46
2023/09/29 09:31:44;;;;;;;;;;;;;;;26.96;30.95;100848.83;109963;1275;22505;-51
2023/09/29 09:34:12;;;;;;;;;;;;;;;26.96;31.10;100842.58;109985;1273;22431;-48
2023/09/29 09:36:45;;;;;;;;;;;;;;;26.96;31.25;100846.17;109881;1269;22485;-46
2023/09/29 09:39:12;;;;;;;;;;;;;;;26.97;30.95;100846.80;109809;1270;22560;-45
2023/09/29 09:41:41;;;;;;;;;;;;;;;27.02;30.81;100841.15;109736;1270;23054;-45
2023/09/29 09:44:11;;;;;;;;;;;;;;;27.09;30.61;100844.33;109843;1270;23301;-52
2023/09/29 09:46:40;;;;;;;;;;;;;;;27.11;30.46;100845.67;109854;1271;22528;-46
2023/09/29 09:49:13;;;;;;;;;;;;;;;27.09;30.36;100841.50;109759;1269;23226;-46
2023/09/29 09:51:44;;;;;;;;;;;;;;;27.05;29.94;100837.40;109777;1266;23281;-47
2023/09/29 09:54:11;;;;;;;;;;;;;;;27.01;30.08;100838.85;109842;1274;22514;-52
2023/09/29 09:56:45;;;;;;;;;;;;;;;27.05;30.27;100835.41;109833;1271;22487;-51
2023/09/29 09:59:13;;;;;;;;;;;;;;;27.13;29.93;100832.29;109920;1275;23260;-51
2023/09/29 10:01:41;;;;;;;;;;;;;;;27.19;29.30;100833.16;109876;1277;22435;-51
2023/09/29 10:04:12;;;;;;;;;;;;;;;27.27;29.11;100829.82;109742;1277;22434;-52
2023/09/29 10:06:39;;;;;;;;;;;;;;;27.40;28.97;100826.34;109700;1278;23273;-46
2023/09/29 10:09:11;;;;;;;;;;;;;;;27.57;28.70;100822.91;109668;1272;22459;-46
2023/09/29 10:11:42;;;;;;;;;;;;;;;27.78;28.48;100825.02;109728;1273;22536;-47
2023/09/29 10:14:09;;;;;;;;;;;;;;;28.00;28.07;100822.39;109788;1278;22502;-53
2023/09/29 10:16:36;;;;;;;;;;;;;;;28.27;27.43;100815.98;109641;1272;23217;-47
2023/09/29 10:19:06;;;;;;;;;;;;;;;28.67;26.92;100815.45;109825;1269;22428;-47
2023/09/29 10:21:43;;;;;;;;;;;;;;;29.12;26.74;100808.14;109890;1266;23603;-53
2023/09/29 10:24:13;;;;;;;;;;;;;;;29.54;26.88;100808.59;109910;1271;22404;-53
2023/09/29 10:26:49;;;;;;;;;;;;;;;29.97;26.47;100803.85;109912;1278;23269;-47
2023/09/29 10:29:19;;;;;;;;;;;;;;;30.51;24.91;100797.67;109965;1269;23348;-47
2023/09/29 10:31:46;;;;;;;;;;;;;;;30.91;24.38;100799.88;110010;1275;22431;-46
2023/09/29 10:34:20;;;;;;;;;;;;;;;31.25;23.59;100798.00;110031;1268;22939;-52
2023/09/29 10:36:56;;;;;;;;;;;;;;;31.46;23.97;100796.33;110057;1268;22431;-52
2023/09/29 10:39:24;;;;;;;;;;;;;;;31.85;23.49;100792.48;110113;1269;22471;-46
2023/09/29 10:41:58;;;;;;;;;;;;;;;32.18;23.55;100787.81;110065;1269;22414;-52
2023/09/29 10:44:28;;;;;;;;;;;;;;;32.45;23.39;100785.20;110046;1278;23188;-52
2023/09/29 10:46:55;;;;;;;;;;;;;;;32.53;22.90;100786.45;109962;1278;22435;-52
2023/09/29 10:49:31;;;;;;;;;;;;;;;32.61;22.86;100784.55;110084;1269;22488;-52
2023/09/29 10:51:58;;;;;;;;;;;;;;;32.75;22.75;100781.70;110080;1273;22452;-52
2023/09/29 10:54:25;;;;;;;;;;;;;;;32.74;22.44;100777.36;109976;1270;22785;-46
2023/09/29 10:56:51;;;;;;;;;;;;;;;32.51;22.60;100774.92;110100;1278;23099;-48
2023/09/29 10:59:18;;;;;;;;;;;;;;;32.48;22.81;100769.73;110152;1269;22406;-52
2023/09/29 11:01:46;;;;;;;;;;;;;;;32.69;22.51;100765.45;110220;1275;23502;-51
2023/09/29 11:04:13;;;;;;;;;;;;;;;33.08;22.26;100767.91;110051;1279;22508;-47
2023/09/29 11:06:40;;;;;;;;;;;;;;;33.52;21.82;100765.85;110139;1278;23120;-47
2023/09/29 11:09:07;;;;;;;;;;;;;;;33.94;21.69;100767.00;110071;1271;22397;-52
2023/09/29 11:11:39;;;;;;;;;;;;;;;34.25;21.17;100759.95;110068;1278;22447;-52
2023/09/29 11:14:06;;;;;;;;;;;;;;;34.37;20.86;100756.23;110058;1278;24325;-46
2023/09/29 11:16:32;;;;;;;;;;;;;;;34.32;20.90;100756.77;110135;1278;22512;-46
2023/09/29 11:19:06;;;;;;;;;;;;;;;34.00;20.92;100759.51;110195;1273;22514;-47
2023/09/29 11:21:33;;;;;;;;;;;;;;;33.46;21.40;100761.48;110051;1269;22509;-47
2023/09/29 11:24:10;;;;;;;;;;;;;;;32.95;22.01;100751.00;110027;1278;23663;-47
2023/09/29 11:26:40;;;;;;;;;;;;;;;32.51;22.19;100747.27;110176;1266;23310;-46
2023/09/29 11:29:08;;;;;;;;;;;;;;;32.14;21.95;100744.08;110185;1276;23409;-47
2023/09/29 11:31:36;;;;;;;;;;;;;;;31.78;22.10;100739.30;110186;1266;22503;-53
2023/09/29 11:34:03;;;;;;;;;;;;;;;31.35;22.63;100740.94;110196;1266;23505;-46
2023/09/29 11:36:30;;;;;;;;;;;;;;;30.87;23.14;100739.88;110231;1259;22445;-47
2023/09/29 11:38:57;;;;;;;;;;;;;;;30.55;23.67;100741.77;110288;1273;22403;-52
2023/09/29 11:41:23;;;;;;;;;;;;;;;30.28;23.85;100738.80;110171;1266;23061;-47
2023/09/29 11:43:50;;;;;;;;;;;;;;;30.10;24.08;100737.66;110253;1266;22484;-52
2023/09/29 11:46:17;;;;;;;;;;;;;;;29.99;24.15;100735.40;110236;1269;22445;-47
2023/09/29 11:48:44;;;;;;;;;;;;;;;29.89;24.13;100736.69;110069;1278;22453;-52
2023/09/29 11:51:13;;;;;;;;;;;;;;;29.80;24.43;100733.20;110280;1262;22643;-47
2023/09/29 11:53:40;;;;;;;;;;;;;;;29.72;24.47;100736.90;110365;1277;23087;-46
2023/09/29 11:56:07;;;;;;;;;;;;;;;29.63;24.64;100735.88;110330;1277;22414;-52
2023/09/29 11:58:35;;;;;;;;;;;;;;;29.48;24.97;100733.70;110311;1275;22492;-51
2023/09/29 12:01:02;;;;;;;;;;;;;;;29.31;25.21;100734.20;110168;1267;22526;-46
2023/09/29 12:03:29;;;;;;;;;;;;;;;29.19;25.18;100733.64;110191;1266;22518;-45
2023/09/29 12:05:58;;;;;;;;;;;;;;;29.10;25.33;100732.64;110185;1278;22518;-51
2023/09/29 12:08:25;;;;;;;;;;;;;;;29.00;25.43;100735.50;110191;1277;22509;-52
2023/09/29 12:10:52;;;;;;;;;;;;;;;28.88;25.68;100733.27;110202;1276;22654;-52
2023/09/29 12:13:20;;;;;;;;;;;;;;;28.79;25.77;100731.59;110244;1267;22520;-46
2023/09/29 12:15:47;;;;;;;;;;;;;;;28.69;25.80;100728.54;110239;1277;24297;-46
2023/09/29 12:18:13;;;;;;;;;;;;;;;28.56;25.44;100726.52;110233;1266;22503;-46
2023/09/29 12:20:40;;;;;;;;;;;;;;;28.45;25.70;100715.60;110258;1259;23056;-52
2023/09/29 12:23:08;;;;;;;;;;;;;;;28.39;25.69;100717.98;110359;1276;23343;-51
2023/09/29 12:25:35;;;;;;;;;;;;;;;28.34;25.84;100715.59;110140;1277;23049;-52
2023/09/29 12:28:03;;;;;;;;;;;;;;;28.41;26.13;100713.59;110068;1277;22992;-52
2023/09/29 12:30:30;;;;;;;;;;;;;;;28.47;26.05;100716.35;110272;1278;22582;-52
2023/09/29 12:32:57;;;;;;;;;;;;;;;28.49;26.22;100712.80;110057;1278;23420;-46
2023/09/29 12:35:24;;;;;;;;;;;;;;;28.50;26.32;100709.36;110230;1278;22436;-47
2023/09/29 12:37:52;;;;;;;;;;;;;;;28.51;26.38;100713.06;110191;1278;22505;-52
2023/09/29 12:40:18;;;;;;;;;;;;;;;28.49;26.20;100708.16;110186;1278;23572;-47
2023/09/29 12:42:49;;;;;;;;;;;;;;;28.50;26.26;100704.86;110201;1270;22429;-52
2023/09/29 12:45:17;;;;;;;;;;;;;;;28.55;26.23;100701.49;110240;1277;22414;-47
2023/09/29 12:47:46;;;;;;;;;;;;;;;28.63;26.11;100698.73;110209;1278;23150;-47
2023/09/29 12:50:14;;;;;;;;;;;;;;;28.74;26.27;100699.99;110271;1278;22415;-53
2023/09/29 12:52:40;;;;;;;;;;;;;;;28.82;26.07;100699.95;110237;1268;22536;-47
2023/09/29 12:55:08;;;;;;;;;;;;;;;28.86;26.00;100696.44;110216;1266;22420;-52
2023/09/29 12:57:35;;;;;;;;;;;;;;;28.85;25.93;100693.61;110249;1278;22451;-47
2023/09/29 13:00:04;;;;;;;;;;;;;;;28.95;26.23;100695.32;110262;1266;22421;-52
2023/09/29 13:02:31;;;;;;;;;;;;;;;29.14;26.11;100690.16;110218;1277;22444;-51
2023/09/29 13:04:58;;;;;;;;;;;;;;;29.25;26.26;100686.54;110268;1274;22504;-51
2023/09/29 13:07:25;;;;;;;;;;;;;;;29.07;26.39;100685.27;110197;1277;23657;-46
2023/09/29 13:09:52;;;;;;;;;;;;;;;28.86;26.51;100689.81;110189;1278;23203;-46
2023/09/29 13:12:19;;;;;;;;;;;;;;;28.72;26.56;100687.73;110213;1277;22626;-48
2023/09/29 13:14:57;;;;;;;;;;;;;;;28.66;26.75;100688.16;110230;1277;23489;-45
2023/09/29 13:17:24;;;;;;;;;;;;;;;28.57;26.88;100688.91;110335;1276;22481;-46
2023/09/29 13:19:50;;;;;;;;;;;;;;;28.44;26.98;100685.72;110342;1266;22491;-46
2023/09/29 13:22:17;;;;;;;;;;;;;;;28.32;27.23;100684.38;110317;1276;22991;-51
2023/09/29 13:24:44;;;;;;;;;;;;;;;28.17;27.58;100686.58;110353;1267;22493;-46
2023/09/29 13:27:10;;;;;;;;;;;;;;;28.10;27.63;100689.38;110350;1268;22500;-51
2023/09/29 13:29:38;;;;;;;;;;;;;;;28.21;27.69;100689.78;110324;1267;23436;-51
2023/09/29 13:32:05;;;;;;;;;;;;;;;28.20;27.64;100686.81;110367;1276;22436;-46
2023/09/29 13:34:32;;;;;;;;;;;;;;;28.11;27.63;100680.39;110317;1276;22479;-51
2023/09/29 13:36:59;;;;;;;;;;;;;;;28.04;27.87;100674.94;110341;1275;23183;-52
2023/09/29 13:39:27;;;;;;;;;;;;;;;27.95;27.97;100679.89;110275;1266;23184;-51
2023/09/29 13:41:54;;;;;;;;;;;;;;;27.90;28.05;100677.89;110280;1274;22465;-48
2023/09/29 13:44:21;;;;;;;;;;;;;;;27.85;28.14;100674.09;110254;1276;23296;-46
2023/09/29 13:46:47;;;;;;;;;;;;;;;27.77;28.29;100672.46;110191;1266;22598;-46
2023/09/29 13:49:31;;;;;;;;;;;;;;;27.72;28.32;100673.29;110175;1266;22501;-46
2023/09/29 13:51:57;;;;;;;;;;;;;;;27.67;28.33;100672.00;110183;1266;23381;-46
2023/09/29 13:54:24;;;;;;;;;;;;;;;27.58;28.36;100669.67;110183;1269;22516;-51
2023/09/29 13:56:51;;;;;;;;;;;;;;;27.48;28.36;100668.95;110231;1275;22706;-45
2023/09/29 13:59:17;;;;;;;;;;;;;;;27.40;28.87;100670.52;110166;1266;23078;-50
2023/09/29 14:01:44;;;;;;;;;;;;;;;27.41;28.89;100670.61;110200;1266;22514;-45
2023/09/29 14:04:11;;;;;;;;;;;;;;;27.58;28.78;100667.18;110184;1266;23394;-45
2023/09/29 14:06:37;;;;;;;;;;;;;;;27.75;28.60;100665.60;110169;1269;22480;-51
2023/09/29 14:09:04;;;;;;;;;;;;;;;27.83;28.46;100666.14;110204;1266;22573;-52
2023/09/29 14:11:43;;;;;;;;;;;;;;;27.84;28.26;100664.65;110189;1267;22521;-46
2023/09/29 14:14:10;;;;;;;;;;;;;;;27.90;28.29;100663.34;110254;1266;22631;-47
2023/09/29 14:16:36;;;;;;;;;;;;;;;28.02;28.22;100664.30;110267;1266;22554;-45
2023/09/29 14:19:03;;;;;;;;;;;;;;;28.01;27.96;100662.55;110246;1266;22554;-46
2023/09/29 14:21:30;;;;;;;;;;;;;;;27.84;28.02;100660.48;110275;1266;22540;-52
2023/09/29 14:23:57;;;;;;;;;;;;;;;27.63;28.19;100657.40;110180;1266;22718;-52
2023/09/29 14:26:25;;;;;;;;;;;;;;;27.45;28.38;100660.32;110272;1266;23283;-52
2023/09/29 14:28:51;;;;;;;;;;;;;;;27.41;28.59;100655.60;110329;1266;23051;-52
2023/09/29 14:31:18;;;;;;;;;;;;;;;27.49;28.42;100649.30;110336;1266;22516;-46
2023/09/29 14:33:45;;;;;;;;;;;;;;;27.66;28.35;100648.43;110316;1276;22418;-47
2023/09/29 14:36:12;;;;;;;;;;;;;;;27.85;28.14;100649.89;110322;1276;22463;-46
2023/09/29 14:38:38;;;;;;;;;;;;;;;27.98;27.84;100651.15;110328;1276;22449;-47
2023/09/29 14:41:08;;;;;;;;;;;;;;;27.99;27.85;100649.63;110323;1267;23220;-46
2023/09/29 14:43:35;;;;;;;;;;;;;;;27.98;27.90;100649.14;110366;1266;22407;-46
2023/09/29 14:46:13;;;;;;;;;;;;;;;28.10;27.78;100651.05;110314;1275;22419;-46
2023/09/29 14:48:40;;;;;;;;;;;;;;;28.24;27.61;100647.91;110332;1273;23100;-45
2023/09/29 14:51:06;;;;;;;;;;;;;;;28.36;27.47;100647.15;110314;1266;22466;-45
2023/09/29 14:53:34;;;;;;;;;;;;;;;28.45;27.45;100647.08;110317;1264;22546;-51
2023/09/29 14:56:04;;;;;;;;;;;;;;;28.47;27.42;100647.63;110226;1264;22797;-51
2023/09/29 14:58:33;;;;;;;;;;;;;;;28.43;27.24;100647.23;110111;1264;22667;-52
2023/09/29 15:01:02;;;;;;;;;;;;;;;28.33;27.37;100650.41;109531;1276;22549;-52
2023/09/29 15:03:32;;;;;;;;;;;;;;;28.17;27.61;100649.64;109615;1276;23384;-47
2023/09/29 15:06:00;;;;;;;;;;;;;;;27.99;27.69;100652.86;110043;1267;22505;-51
2023/09/29 15:08:34;;;;;;;;;;;;;;;27.80;27.89;100653.92;110216;1276;22571;-51
2023/09/29 15:11:00;;;;;;;;;;;;;;;27.63;28.16;100650.77;110236;1266;22527;-52
2023/09/29 15:13:28;;;;;;;;;;;;;;;27.48;28.47;100651.58;110163;1264;22668;-45
2023/09/29 15:15:54;;;;;;;;;;;;;;;27.27;28.63;100653.83;110108;1266;22505;-46
2023/09/29 15:18:22;;;;;;;;;;;;;;;27.03;28.98;100656.21;110156;1270;22536;-51
2023/09/29 15:20:51;;;;;;;;;;;;;;;26.74;29.32;100657.06;110001;1276;22526;-52
2023/09/29 15:23:18;;;;;;;;;;;;;;;26.42;29.68;100656.92;110102;1257;23132;-45
2023/09/29 15:25:46;;;;;;;;;;;;;;;26.08;30.02;100658.15;110136;1264;22559;-51
2023/09/29 15:28:15;;;;;;;;;;;;;;;25.78;30.67;100656.71;110157;1257;22511;-51
2023/09/29 15:30:43;;;;;;;;;;;;;;;25.49;30.89;100660.30;110118;1263;22499;-46
2023/09/29 15:33:12;;;;;;;;;;;;;;;25.19;31.42;100663.59;110026;1261;22533;-46
2023/09/29 15:35:53;;;;;;;;;;;;;;;24.90;31.74;100661.76;110193;1266;22544;-46
2023/09/29 15:38:20;;;;;;;;;;;;;;;24.64;32.30;100665.63;110133;1267;23398;-47
2023/09/29 15:40:47;;;;;;;;;;;;;;;24.44;32.65;100666.84;110135;1270;22457;-52
2023/09/29 15:43:13;;;;;;;;;;;;;;;24.25;33.03;100669.20;110117;1268;23201;-47
2023/09/29 15:45:41;;;;;;;;;;;;;;;24.08;33.22;100672.17;110114;1279;22991;-46
2023/09/29 15:48:08;;;;;;;;;;;;;;;23.95;33.47;100673.20;110125;1279;23402;-47
2023/09/29 15:50:35;;;;;;;;;;;;;;;23.84;33.62;100671.59;110103;1279;22442;-47
